Time;durP1;ratioP1;P1;durP2;ratioP2;P2;SDS_P1;SDS_P2;PMS_P1;PMS_P2;Temp;Humidity;BMP_temperature;BMP_pressure;BME280_temperature;BME280_humidity;BME280_pressure;Samples;Min_cycle;Max_cycle;Signal;HPM_P1;HPM_P2
2023/12/30 00:00:51;;;;;;;3.90;3.70;;;9.70;96.70;;;;;;5033731;28;20820;-81
2023/12/30 00:03:20;;;;;;;3.40;3.30;;;9.70;53.20;;;;;;5038118;28;20463;-81
2023/12/30 00:05:48;;;;;;;3.83;3.60;;;9.80;99.90;;;;;;5038409;28;20461;-81
2023/12/30 00:08:17;;;;;;;3.80;3.70;;;9.80;1.00;;;;;;5038519;28;21274;-81
2023/12/30 00:10:46;;;;;;;4.00;3.90;;;9.80;1.00;;;;;;5038180;28;21945;-80
2023/12/30 00:13:14;;;;;;;4.73;4.53;;;9.80;1.00;;;;;;5039019;28;20538;-82
2023/12/30 00:15:42;;;;;;;4.03;3.83;;;9.80;8.60;;;;;;5038064;28;20452;-81
2023/12/30 00:18:11;;;;;;;4.30;4.10;;;9.80;1.00;;;;;;5037880;28;20506;-81
2023/12/30 00:20:39;;;;;;;4.20;4.00;;;9.80;66.50;;;;;;5037679;28;20456;-82
2023/12/30 00:23:07;;;;;;;3.97;3.77;;;9.90;99.90;;;;;;5037363;28;20823;-82
2023/12/30 00:25:37;;;;;;;4.53;4.33;;;9.90;99.90;;;;;;5038005;28;20532;-81
2023/12/30 00:28:05;;;;;;;4.50;4.30;;;9.90;99.90;;;;;;5038724;28;20471;-81
2023/12/30 00:30:33;;;;;;;4.10;4.00;;;9.90;99.90;;;;;;5035773;28;20539;-80
2023/12/30 00:33:02;;;;;;;4.00;3.90;;;9.80;23.50;;;;;;5037162;28;20451;-80
2023/12/30 00:35:30;;;;;;;4.00;3.90;;;9.80;53.20;;;;;;5040069;28;20456;-80
2023/12/30 00:37:59;;;;;;;4.27;4.07;;;9.80;99.90;;;;;;5037101;28;20579;-81
2023/12/30 00:40:27;;;;;;;4.90;4.60;;;9.80;99.90;;;;;;5039802;28;20456;-81
2023/12/30 00:42:56;;;;;;;4.37;4.17;;;9.80;38.50;;;;;;5038945;28;20502;-81
2023/12/30 00:45:25;;;;;;;3.90;3.80;;;9.90;89.50;;;;;;5040014;28;20453;-80
2023/12/30 00:47:53;;;;;;;4.27;4.17;;;9.90;47.50;;;;;;5040147;28;20571;-81
2023/12/30 00:50:21;;;;;;;3.83;3.73;;;10.00;99.90;;;;;;5036631;28;20994;-81
2023/12/30 00:52:49;;;;;;;4.50;4.30;;;10.00;66.10;;;;;;5040118;28;20539;-81
2023/12/30 00:55:18;;;;;;;4.43;4.33;;;10.00;31.40;;;;;;5040603;28;20444;-81
2023/12/30 00:57:46;;;;;;;4.53;4.33;;;9.90;1.00;;;;;;5038131;28;20580;-81
2023/12/30 01:00:16;;;;;;;4.53;4.43;;;10.00;93.10;;;;;;5038506;28;21005;-81
2023/12/30 01:02:44;;;;;;;4.20;4.10;;;9.90;33.30;;;;;;5038980;28;20506;-80
2023/12/30 01:05:13;;;;;;;3.77;3.67;;;9.90;19.20;;;;;;5038145;28;20535;-81
2023/12/30 01:07:41;;;;;;;4.00;3.90;;;10.00;6.00;;;;;;5034692;28;20476;-81
2023/12/30 01:10:09;;;;;;;3.77;3.57;;;9.90;1.00;;;;;;5038655;28;20508;-81
2023/12/30 01:12:37;;;;;;;4.00;3.90;;;9.90;1.00;;;;;;5038409;28;20516;-80
2023/12/30 01:15:07;;;;;;;4.70;4.50;;;9.90;1.00;;;;;;5040628;28;20448;-81
2023/12/30 01:17:36;;;;;;;4.00;3.80;;;9.90;1.00;;;;;;5050991;28;20479;-81
2023/12/30 01:20:06;;;;;;;3.60;3.50;;;9.90;1.00;;;;;;5037638;28;20446;-81
2023/12/30 01:22:37;;;;;;;3.63;3.53;;;9.90;1.00;;;;;;5037980;28;20448;-82
2023/12/30 01:25:06;;;;;;;3.63;3.53;;;10.00;1.00;;;;;;5037709;28;20478;-82
2023/12/30 01:27:34;;;;;;;3.60;3.50;;;10.00;1.00;;;;;;5036224;28;21071;-81
2023/12/30 01:30:02;;;;;;;4.03;3.83;;;9.90;1.00;;;;;;5035930;28;20471;-80
2023/12/30 01:32:31;;;;;;;4.50;4.30;;;9.90;1.00;;;;;;5039415;28;20465;-80
2023/12/30 01:35:00;;;;;;;3.70;3.50;;;10.00;1.00;;;;;;5039740;28;20467;-81
2023/12/30 01:37:29;;;;;;;3.60;3.50;;;10.00;1.00;;;;;;5037246;28;20675;-81
2023/12/30 01:39:57;;;;;;;3.53;3.43;;;10.00;1.00;;;;;;5036264;28;20548;-81
2023/12/30 01:42:25;;;;;;;4.93;4.40;;;10.00;1.00;;;;;;5034738;28;20452;-82
2023/12/30 01:44:54;;;;;;;4.90;4.70;;;10.00;1.00;;;;;;5038919;28;20464;-81
2023/12/30 01:47:22;;;;;;;3.83;3.73;;;10.00;1.00;;;;;;5038796;28;20529;-81
2023/12/30 01:49:50;;;;;;;3.80;3.70;;;10.10;1.00;;;;;;5033110;28;20478;-81
2023/12/30 01:52:20;;;;;;;4.13;3.93;;;10.00;1.00;;;;;;5035397;28;20483;-81
2023/12/30 01:54:49;;;;;;;4.40;4.20;;;10.00;1.00;;;;;;5039189;28;20445;-81
2023/12/30 01:57:17;;;;;;;4.20;4.00;;;10.00;40.50;;;;;;5035571;28;20473;-81
2023/12/30 01:59:47;;;;;;;4.50;4.40;;;10.00;99.90;;;;;;5032631;28;20545;-80
2023/12/30 02:02:16;;;;;;;4.40;4.30;;;10.00;71.10;;;;;;5034003;28;20453;-81
2023/12/30 02:04:44;;;;;;;4.80;4.70;;;10.00;99.90;;;;;;5038438;28;20476;-82
2023/12/30 02:07:13;;;;;;;4.33;4.13;;;9.90;99.90;;;;;;5036352;28;20484;-80
2023/12/30 02:09:43;;;;;;;4.07;3.97;;;10.00;99.90;;;;;;5034539;28;20456;-81
2023/12/30 02:12:11;;;;;;;4.67;4.47;;;9.90;99.90;;;;;;5038740;28;20468;-80
2023/12/30 02:14:39;;;;;;;4.33;4.23;;;9.90;99.90;;;;;;5035184;28;20459;-81
2023/12/30 02:17:07;;;;;;;4.23;4.03;;;9.80;99.90;;;;;;5035041;28;20448;-81
2023/12/30 02:19:36;;;;;;;4.43;4.20;;;9.80;99.90;;;;;;5030434;28;20546;-80
2023/12/30 02:22:04;;;;;;;4.50;4.40;;;9.80;99.90;;;;;;5036686;28;20448;-80
2023/12/30 02:24:34;;;;;;;4.50;4.30;;;9.80;99.90;;;;;;5035517;28;20456;-81
2023/12/30 02:27:02;;;;;;;4.47;4.27;;;9.80;99.90;;;;;;5038494;28;20461;-81
2023/12/30 02:29:30;;;;;;;4.77;4.57;;;9.70;99.90;;;;;;5038640;28;20733;-80
2023/12/30 02:32:00;;;;;;;4.37;4.23;;;9.70;99.90;;;;;;5043305;28;20476;-80
2023/12/30 02:34:28;;;;;;;4.37;4.27;;;9.70;99.90;;;;;;5045390;28;21015;-80
2023/12/30 02:36:56;;;;;;;4.50;4.40;;;9.80;99.90;;;;;;5039244;28;20437;-81
2023/12/30 02:39:25;;;;;;;4.43;4.20;;;9.70;99.90;;;;;;5040772;28;20460;-80
2023/12/30 02:41:54;;;;;;;4.20;4.10;;;9.70;99.90;;;;;;5038206;28;20455;-81
2023/12/30 02:44:23;;;;;;;4.70;4.50;;;9.70;99.90;;;;;;5042166;28;20463;-80
2023/12/30 02:46:51;;;;;;;4.40;4.30;;;9.70;99.90;;;;;;5038408;28;20464;-80
2023/12/30 02:49:20;;;;;;;4.93;4.63;;;9.70;99.90;;;;;;5039549;28;20463;-82
2023/12/30 02:51:49;;;;;;;4.30;4.07;;;9.70;99.90;;;;;;5041198;28;20807;-80
2023/12/30 02:54:17;;;;;;;4.27;4.17;;;9.70;99.90;;;;;;5054795;28;20464;-79
2023/12/30 02:56:45;;;;;;;4.30;4.20;;;9.70;99.90;;;;;;5035184;28;20531;-80
2023/12/30 02:59:15;;;;;;;4.63;4.53;;;9.70;99.90;;;;;;5038774;28;20469;-80
2023/12/30 03:01:43;;;;;;;4.80;4.60;;;9.70;99.90;;;;;;5032971;28;20830;-81
2023/12/30 03:04:12;;;;;;;4.83;4.53;;;9.70;1.00;;;;;;5037121;28;20651;-82
2023/12/30 03:06:40;;;;;;;4.77;4.47;;;9.70;99.90;;;;;;5034450;28;20476;-82
2023/12/30 03:09:08;;;;;;;5.10;4.97;;;9.70;99.90;;;;;;5038561;28;20480;-81
2023/12/30 03:11:37;;;;;;;4.43;4.33;;;9.70;99.90;;;;;;5037344;28;20453;-80
2023/12/30 03:14:05;;;;;;;4.87;4.77;;;9.70;99.90;;;;;;5039630;28;20449;-79
2023/12/30 03:16:35;;;;;;;4.60;4.40;;;9.70;99.90;;;;;;5034071;28;20550;-80
2023/12/30 03:19:04;;;;;;;5.07;4.70;;;9.70;99.90;;;;;;5034058;28;20480;-80
2023/12/30 03:21:32;;;;;;;4.47;4.27;;;9.60;99.90;;;;;;5036915;28;20456;-81
2023/12/30 03:24:00;;;;;;;4.80;4.60;;;9.60;1.00;;;;;;5040931;28;20448;-82
2023/12/30 03:26:29;;;;;;;4.80;4.60;;;9.60;1.00;;;;;;5037840;28;20459;-81
2023/12/30 03:28:57;;;;;;;4.93;4.40;;;9.60;99.90;;;;;;5039609;28;20486;-80
2023/12/30 03:31:27;;;;;;;4.90;4.60;;;9.60;1.00;;;;;;5039893;28;20471;-82
2023/12/30 03:33:57;;;;;;;4.50;4.40;;;9.60;99.90;;;;;;5038019;28;20472;-82
2023/12/30 03:36:26;;;;;;;4.53;4.23;;;9.60;99.90;;;;;;5040402;28;20826;-80
2023/12/30 03:38:54;;;;;;;4.13;4.03;;;9.70;99.90;;;;;;5039617;28;20481;-81
2023/12/30 03:41:24;;;;;;;4.13;4.00;;;9.60;99.90;;;;;;5033739;28;20562;-81
2023/12/30 03:43:53;;;;;;;4.10;3.90;;;9.60;99.90;;;;;;5036891;28;20436;-81
2023/12/30 03:46:21;;;;;;;4.20;4.00;;;9.60;1.00;;;;;;5039373;28;20495;-81
2023/12/30 03:48:49;;;;;;;4.43;4.33;;;9.60;1.00;;;;;;5037730;28;21017;-82
2023/12/30 03:51:19;;;;;;;4.63;4.33;;;9.50;1.00;;;;;;5038799;28;21001;-81
2023/12/30 03:53:47;;;;;;;4.77;4.60;;;9.40;1.00;;;;;;5034935;28;20571;-82
2023/12/30 03:56:16;;;;;;;4.33;4.23;;;9.50;99.90;;;;;;5036793;28;20453;-82
2023/12/30 03:58:44;;;;;;;4.47;4.37;;;9.40;99.90;;;;;;5036434;28;20464;-82
2023/12/30 04:01:12;;;;;;;4.57;4.37;;;9.50;99.90;;;;;;5041688;28;20464;-81
2023/12/30 04:03:40;;;;;;;4.37;4.27;;;9.40;99.90;;;;;;5036922;28;20448;-81
2023/12/30 04:06:17;;;;;;;4.20;3.90;;;9.40;99.90;;;;;;5039562;28;20463;-81
2023/12/30 04:08:46;;;;;;;4.37;4.27;;;9.40;99.90;;;;;;5039012;28;20460;-82
2023/12/30 04:11:15;;;;;;;4.27;4.17;;;9.30;99.90;;;;;;5038251;28;20448;-81
2023/12/30 04:13:43;;;;;;;4.03;3.93;;;9.40;99.90;;;;;;5040627;28;20476;-81
2023/12/30 04:16:11;;;;;;;4.33;4.23;;;9.40;99.90;;;;;;5039167;28;20445;-81
2023/12/30 04:18:40;;;;;;;4.20;4.10;;;9.40;99.90;;;;;;5039157;28;20469;-82
2023/12/30 04:21:08;;;;;;;4.10;4.00;;;9.40;1.00;;;;;;5036659;28;20449;-81
2023/12/30 04:23:36;;;;;;;4.90;4.63;;;9.40;1.00;;;;;;5038564;28;20878;-81
2023/12/30 04:26:06;;;;;;;4.80;4.60;;;9.40;1.00;;;;;;5039648;28;21028;-81
2023/12/30 04:28:35;;;;;;;5.33;5.20;;;9.30;99.90;;;;;;5035156;28;20595;-81
2023/12/30 04:31:03;;;;;;;5.50;4.60;;;9.30;99.90;;;;;;5039015;28;20456;-81
2023/12/30 04:33:32;;;;;;;5.20;4.83;;;9.40;1.00;;;;;;5036190;28;20987;-81
2023/12/30 04:36:00;;;;;;;4.83;4.63;;;9.30;99.90;;;;;;5039626;28;20526;-82
2023/12/30 04:38:29;;;;;;;4.70;4.60;;;9.30;49.60;;;;;;5035549;28;20560;-82
2023/12/30 04:40:57;;;;;;;4.87;4.60;;;9.30;99.90;;;;;;5035894;28;20460;-82
2023/12/30 04:43:26;;;;;;;4.67;4.37;;;9.40;1.00;;;;;;5038012;28;20765;-80
2023/12/30 04:45:55;;;;;;;4.60;4.40;;;9.40;99.90;;;;;;5039335;28;20488;-82
2023/12/30 04:48:23;;;;;;;5.03;4.73;;;9.30;1.00;;;;;;5035984;28;20472;-81
2023/12/30 04:50:52;;;;;;;4.97;4.57;;;9.40;99.90;;;;;;5040824;28;20448;-81
2023/12/30 04:53:20;;;;;;;4.90;4.70;;;9.30;99.90;;;;;;5038575;28;20481;-82
2023/12/30 04:55:48;;;;;;;5.70;5.37;;;9.30;1.00;;;;;;5035871;28;20464;-80
2023/12/30 04:58:17;;;;;;;5.13;4.90;;;9.30;99.90;;;;;;5039033;28;20464;-82
2023/12/30 05:00:47;;;;;;;4.80;4.70;;;9.30;1.00;;;;;;5036407;28;20468;-81
2023/12/30 05:03:16;;;;;;;4.60;4.50;;;9.30;99.90;;;;;;5035957;28;20456;-81
2023/12/30 05:05:45;;;;;;;4.93;4.70;;;9.30;99.90;;;;;;5036893;28;20569;-81
2023/12/30 05:08:14;;;;;;;4.80;4.50;;;9.30;99.90;;;;;;5036940;28;20522;-81
2023/12/30 05:10:42;;;;;;;4.80;4.70;;;9.30;99.90;;;;;;5037151;28;20460;-81
2023/12/30 05:13:10;;;;;;;5.07;4.97;;;9.30;1.00;;;;;;5036713;28;20525;-83
2023/12/30 05:15:39;;;;;;;5.10;4.90;;;9.30;1.00;;;;;;5034522;28;20475;-81
2023/12/30 05:18:08;;;;;;;4.93;4.73;;;9.30;1.00;;;;;;5036463;28;21370;-81
2023/12/30 05:20:37;;;;;;;4.90;4.80;;;9.30;1.00;;;;;;5037177;28;20448;-81
2023/12/30 05:23:05;;;;;;;4.90;4.80;;;9.30;1.00;;;;;;5032360;28;20445;-81
2023/12/30 05:25:33;;;;;;;5.13;4.93;;;9.30;2.60;;;;;;5036321;28;21321;-81
2023/12/30 05:28:01;;;;;;;5.67;5.27;;;9.30;17.10;;;;;;5037134;28;20474;-81
2023/12/30 05:30:30;;;;;;;4.80;4.60;;;9.30;99.90;;;;;;5038518;28;20459;-82
2023/12/30 05:32:58;;;;;;;4.80;4.70;;;9.30;99.90;;;;;;5037752;28;20441;-81
2023/12/30 05:35:35;;;;;;;5.20;5.00;;;9.30;99.90;;;;;;5036766;28;20459;-82
2023/12/30 05:38:04;;;;;;;5.73;5.30;;;9.20;99.90;;;;;;5034444;28;20836;-81
2023/12/30 05:40:32;;;;;;;5.20;5.10;;;9.30;99.90;;;;;;5036759;28;20972;-80
2023/12/30 05:43:01;;;;;;;5.20;5.10;;;9.30;99.90;;;;;;5038796;28;20572;-82
2023/12/30 05:45:29;;;;;;;5.40;5.20;;;9.30;99.90;;;;;;5033896;28;20440;-82
2023/12/30 05:47:58;;;;;;;5.23;5.03;;;9.20;99.90;;;;;;5038260;28;20476;-81
2023/12/30 05:50:28;;;;;;;5.40;5.20;;;9.20;7.60;;;;;;5036936;28;20495;-80
2023/12/30 05:52:57;;;;;;;5.40;5.20;;;9.10;29.80;;;;;;5035392;28;20571;-80
2023/12/30 05:55:25;;;;;;;5.80;5.60;;;9.20;99.90;;;;;;5035098;28;20480;-81
2023/12/30 05:57:53;;;;;;;5.93;5.83;;;9.10;99.90;;;;;;5035658;28;20993;-83
2023/12/30 06:00:22;;;;;;;6.03;5.83;;;9.20;99.90;;;;;;5037307;28;20452;-81
2023/12/30 06:02:51;;;;;;;5.67;5.47;;;9.10;1.00;;;;;;5034190;28;20459;-82
2023/12/30 06:05:20;;;;;;;5.53;5.43;;;9.20;1.00;;;;;;5039208;28;20472;-81
2023/12/30 06:07:49;;;;;;;5.30;5.20;;;9.10;1.00;;;;;;5038644;28;20476;-82
2023/12/30 06:10:18;;;;;;;5.30;5.10;;;9.10;1.00;;;;;;5044873;28;20519;-81
2023/12/30 06:12:46;;;;;;;5.77;5.40;;;9.20;99.90;;;;;;5042684;28;20445;-80
2023/12/30 06:15:15;;;;;;;6.50;6.40;;;9.20;99.90;;;;;;5041514;28;20480;-81
2023/12/30 06:17:43;;;;;;;5.70;5.50;;;9.20;35.50;;;;;;5042331;28;20489;-80
2023/12/30 06:20:12;;;;;;;5.97;5.77;;;9.20;1.00;;;;;;5042259;28;20464;-81
2023/12/30 06:22:40;;;;;;;5.83;5.73;;;9.20;1.00;;;;;;5043519;28;20527;-81
2023/12/30 06:25:10;;;;;;;5.80;5.60;;;9.20;99.90;;;;;;5039165;28;20460;-81
2023/12/30 06:27:38;;;;;;;5.97;5.87;;;9.20;29.70;;;;;;5039897;28;20552;-81
2023/12/30 06:30:07;;;;;;;6.30;6.20;;;9.20;29.40;;;;;;5040053;28;20453;-82
2023/12/30 06:32:36;;;;;;;5.53;5.43;;;9.20;1.00;;;;;;5042415;28;20452;-81
2023/12/30 06:35:05;;;;;;;5.90;5.80;;;9.30;29.00;;;;;;5041641;28;20477;-80
2023/12/30 06:37:33;;;;;;;6.63;6.27;;;9.30;1.00;;;;;;5038564;28;20476;-80
2023/12/30 06:40:02;;;;;;;5.90;5.80;;;9.20;99.90;;;;;;5040570;28;20850;-80
2023/12/30 06:42:32;;;;;;;5.80;5.70;;;9.20;99.90;;;;;;5038052;28;20453;-80
2023/12/30 06:45:00;;;;;;;5.97;5.80;;;9.20;99.90;;;;;;5038674;28;20807;-81
2023/12/30 06:47:29;;;;;;;6.70;6.20;;;9.30;1.00;;;;;;5036430;28;20472;-81
2023/12/30 06:49:57;;;;;;;6.43;6.23;;;9.20;99.90;;;;;;5036892;28;21238;-82
2023/12/30 06:52:25;;;;;;;5.77;5.67;;;9.20;30.40;;;;;;5037203;28;20447;-80
2023/12/30 06:54:54;;;;;;;6.40;6.10;;;9.30;99.90;;;;;;5037581;28;20472;-81
2023/12/30 06:57:43;;;;;;;7.63;7.43;;;9.30;99.90;;;;;;5039794;28;20529;-80
2023/12/30 07:00:12;;;;;;;6.30;6.10;;;9.30;1.00;;;;;;5040778;28;20460;-81
2023/12/30 07:02:41;;;;;;;6.60;6.40;;;9.30;99.90;;;;;;5041111;28;20452;-80
2023/12/30 07:05:09;;;;;;;7.80;7.60;;;9.30;99.90;;;;;;5041939;28;20509;-82
2023/12/30 07:07:37;;;;;;;6.43;6.33;;;9.30;99.90;;;;;;5041798;28;20484;-81
2023/12/30 07:10:06;;;;;;;6.77;6.47;;;9.30;26.40;;;;;;5040880;28;20456;-81
2023/12/30 07:12:35;;;;;;;6.63;6.43;;;9.30;99.90;;;;;;5041897;28;20456;-81
2023/12/30 07:15:05;;;;;;;7.13;6.83;;;9.30;99.90;;;;;;5040305;28;20473;-80
2023/12/30 07:17:34;;;;;;;6.33;6.13;;;9.20;99.90;;;;;;5039149;28;20489;-83
2023/12/30 07:20:03;;;;;;;6.50;6.30;;;9.20;99.90;;;;;;5039778;28;20464;-82
2023/12/30 07:22:31;;;;;;;6.60;6.40;;;9.30;1.00;;;;;;5040667;28;20546;-82
2023/12/30 07:25:00;;;;;;;6.67;6.47;;;9.30;30.00;;;;;;5040505;28;20479;-80
2023/12/30 07:27:28;;;;;;;6.70;6.50;;;9.30;99.90;;;;;;5035732;28;20799;-82
2023/12/30 07:29:57;;;;;;;6.80;6.60;;;9.30;99.90;;;;;;5040456;28;21056;-82
2023/12/30 07:32:27;;;;;;;6.47;6.27;;;9.30;1.00;;;;;;5042625;28;20463;-79
2023/12/30 07:34:55;;;;;;;6.90;6.70;;;9.30;1.00;;;;;;5038864;28;20485;-81
2023/12/30 07:37:24;;;;;;;6.40;6.20;;;9.30;99.90;;;;;;5034973;28;20476;-80
2023/12/30 07:39:53;;;;;;;7.03;6.63;;;9.30;80.60;;;;;;5041071;28;20455;-80
2023/12/30 07:42:21;;;;;;;6.70;6.40;;;9.30;99.90;;;;;;5035394;28;20460;-83
2023/12/30 07:44:52;;;;;;;7.00;6.40;;;9.30;1.00;;;;;;5037585;28;21325;-81
2023/12/30 07:47:21;;;;;;;6.50;6.30;;;9.30;99.90;;;;;;5038159;28;20534;-81
2023/12/30 07:49:51;;;;;;;6.80;6.57;;;9.30;1.00;;;;;;5038372;28;21167;-81
2023/12/30 07:52:19;;;;;;;6.87;6.67;;;9.30;99.90;;;;;;5036432;28;20548;-81
2023/12/30 07:54:47;;;;;;;6.90;6.70;;;9.30;99.90;;;;;;5037945;28;20488;-82
2023/12/30 07:57:16;;;;;;;6.30;6.20;;;9.30;1.00;;;;;;5039145;28;20452;-82
2023/12/30 07:59:44;;;;;;;6.53;6.43;;;9.40;99.90;;;;;;5032598;28;20901;-80
2023/12/30 08:02:12;;;;;;;6.43;6.33;;;9.30;1.00;;;;;;5039322;28;20457;-81
2023/12/30 08:04:43;;;;;;;6.57;6.47;;;9.40;99.90;;;;;;5040325;28;20481;-81
2023/12/30 08:07:13;;;;;;;6.70;6.30;;;9.40;99.90;;;;;;5037645;28;20468;-82
2023/12/30 08:09:42;;;;;;;6.30;6.20;;;9.50;1.00;;;;;;5036971;28;20452;-81
2023/12/30 08:12:10;;;;;;;6.60;6.40;;;9.50;99.90;;;;;;5031466;28;20465;-81
2023/12/30 08:14:39;;;;;;;6.50;6.27;;;9.50;59.20;;;;;;5037907;28;20627;-81
2023/12/30 08:17:07;;;;;;;7.30;7.10;;;9.50;99.90;;;;;;5038096;28;20513;-81
2023/12/30 08:19:36;;;;;;;6.40;6.30;;;9.50;1.00;;;;;;5036975;28;21073;-81
2023/12/30 08:22:04;;;;;;;6.03;5.93;;;9.60;1.00;;;;;;5032367;28;20544;-81
2023/12/30 08:24:34;;;;;;;6.10;5.90;;;9.60;99.90;;;;;;5034495;28;20528;-81
2023/12/30 08:27:02;;;;;;;7.33;7.03;;;9.60;99.90;;;;;;5034420;28;20463;-81
2023/12/30 08:29:30;;;;;;;6.40;6.30;;;9.60;53.40;;;;;;5032965;28;20448;-81
2023/12/30 08:31:59;;;;;;;6.53;6.40;;;9.60;99.90;;;;;;5040012;28;20559;-80
2023/12/30 08:34:28;;;;;;;6.40;6.30;;;9.70;1.00;;;;;;5036131;28;20453;-81
2023/12/30 08:36:56;;;;;;;6.70;6.60;;;9.80;1.00;;;;;;5036059;28;20530;-81
2023/12/30 08:39:25;;;;;;;6.43;6.23;;;9.70;1.00;;;;;;5032426;28;20517;-81
2023/12/30 08:41:55;;;;;;;6.20;6.10;;;9.60;99.90;;;;;;5052826;28;20449;-81
2023/12/30 08:44:23;;;;;;;6.00;5.90;;;9.60;99.90;;;;;;5034934;28;20444;-81
2023/12/30 08:46:51;;;;;;;6.17;5.97;;;9.70;99.90;;;;;;5032084;28;20433;-82
2023/12/30 08:49:20;;;;;;;6.10;5.90;;;9.70;1.00;;;;;;5034563;28;20476;-82
2023/12/30 08:51:49;;;;;;;6.07;5.87;;;9.60;1.00;;;;;;5035979;28;20445;-82
2023/12/30 08:54:17;;;;;;;6.30;6.10;;;9.60;99.90;;;;;;5037923;28;20459;-81
2023/12/30 08:56:45;;;;;;;6.70;6.40;;;9.70;1.00;;;;;;5037132;28;20485;-81
2023/12/30 08:59:16;;;;;;;6.00;5.90;;;9.80;99.90;;;;;;5040945;28;20559;-82
2023/12/30 09:01:44;;;;;;;6.30;6.00;;;9.70;1.00;;;;;;5033028;28;20449;-81
2023/12/30 09:04:12;;;;;;;5.70;5.50;;;9.70;99.90;;;;;;5035393;28;20448;-82
2023/12/30 09:06:41;;;;;;;5.67;5.50;;;9.60;1.00;;;;;;5033455;28;20942;-82
2023/12/30 09:09:09;;;;;;;5.50;5.30;;;9.70;99.90;;;;;;5034956;28;20906;-82
2023/12/30 09:11:38;;;;;;;6.17;5.97;;;9.80;35.80;;;;;;5037218;28;20457;-81
2023/12/30 09:14:07;;;;;;;5.57;5.47;;;9.80;1.00;;;;;;5036772;28;20453;-81
2023/12/30 09:16:37;;;;;;;5.23;5.03;;;9.90;1.00;;;;;;5033485;28;20500;-82
2023/12/30 09:19:06;;;;;;;5.60;5.40;;;10.10;99.90;;;;;;5039735;28;20476;-82
2023/12/30 09:21:35;;;;;;;5.50;5.30;;;10.20;99.90;;;;;;5037015;28;20520;-82
2023/12/30 09:24:03;;;;;;;5.53;5.33;;;10.20;99.90;;;;;;5038948;28;20518;-81
2023/12/30 09:26:31;;;;;;;5.47;5.37;;;10.30;1.00;;;;;;5033729;28;20453;-81
2023/12/30 09:29:00;;;;;;;5.90;5.70;;;10.30;1.00;;;;;;5037537;28;20567;-82
2023/12/30 09:31:28;;;;;;;6.03;5.93;;;10.30;1.00;;;;;;5039507;28;20453;-81
2023/12/30 09:33:58;;;;;;;5.43;5.23;;;10.30;1.00;;;;;;5040393;28;20460;-81
2023/12/30 09:36:28;;;;;;;6.50;6.17;;;10.30;1.00;;;;;;5037003;28;20469;-81
2023/12/30 09:38:56;;;;;;;5.13;5.03;;;10.30;1.00;;;;;;5037332;28;20518;-82
2023/12/30 09:41:26;;;;;;;5.10;5.00;;;10.30;99.90;;;;;;5038955;28;20459;-81
2023/12/30 09:43:55;;;;;;;5.43;5.23;;;10.40;99.90;;;;;;5036440;28;20552;-82
2023/12/30 09:46:25;;;;;;;5.30;5.10;;;10.40;99.90;;;;;;5037114;28;20550;-82
2023/12/30 09:48:56;;;;;;;4.83;4.73;;;10.50;99.90;;;;;;5022955;28;20475;-81
2023/12/30 09:51:27;;;;;;;4.90;4.70;;;10.60;99.90;;;;;;5036675;28;20455;-81
2023/12/30 09:53:55;;;;;;;5.17;4.97;;;10.60;99.90;;;;;;5040756;28;20484;-81
2023/12/30 09:56:26;;;;;;;5.03;4.83;;;10.60;99.90;;;;;;5043772;28;20473;-80
2023/12/30 09:58:54;;;;;;;4.60;4.50;;;10.70;25.10;;;;;;5042247;28;20483;-81
2023/12/30 10:01:23;;;;;;;5.37;5.23;;;10.80;1.00;;;;;;5043084;28;20448;-82
2023/12/30 10:03:51;;;;;;;5.00;4.90;;;10.90;1.00;;;;;;5039155;28;21004;-81
2023/12/30 10:06:23;;;;;;;5.10;4.70;;;10.80;1.00;;;;;;5042927;28;20444;-81
2023/12/30 10:08:52;;;;;;;4.30;4.20;;;10.70;1.00;;;;;;5041725;28;20471;-80
2023/12/30 10:11:20;;;;;;;4.33;4.23;;;10.80;1.00;;;;;;5040485;28;20513;-81
2023/12/30 10:13:49;;;;;;;5.80;5.50;;;11.00;1.00;;;;;;5038180;28;20452;-81
2023/12/30 10:16:18;;;;;;;5.10;4.73;;;11.80;1.00;;;;;;5040991;28;20461;-82
2023/12/30 10:18:47;;;;;;;4.70;4.60;;;12.60;1.00;;;;;;5040415;28;20460;-81
2023/12/30 10:21:17;;;;;;;5.07;4.87;;;13.40;1.00;;;;;;5041975;28;20449;-83
2023/12/30 10:23:48;;;;;;;4.40;4.30;;;13.70;99.90;;;;;;5040769;28;20858;-83
2023/12/30 10:26:18;;;;;;;4.50;4.40;;;13.50;99.90;;;;;;5038254;28;20468;-82
2023/12/30 10:28:46;;;;;;;3.90;3.80;;;13.60;99.90;;;;;;5038295;28;20476;-81
2023/12/30 10:31:17;;;;;;;4.07;3.93;;;13.80;99.90;;;;;;5037077;28;20444;-83
2023/12/30 10:33:48;;;;;;;3.80;3.70;;;14.00;99.90;;;;;;5039104;28;20449;-82
2023/12/30 10:36:17;;;;;;;4.10;3.90;;;14.60;99.90;;;;;;5038488;28;20494;-81
2023/12/30 10:38:46;;;;;;;3.87;3.77;;;15.00;99.90;;;;;;5039426;28;20480;-81
2023/12/30 10:41:14;;;;;;;3.87;3.77;;;15.70;99.90;;;;;;5036791;28;20468;-82
2023/12/30 10:43:44;;;;;;;3.90;3.80;;;16.20;99.90;;;;;;5052576;28;21013;-82
2023/12/30 10:46:13;;;;;;;3.30;3.20;;;16.40;99.90;;;;;;5037749;28;20429;-82
2023/12/30 10:48:51;;;;;;;3.73;3.43;;;16.20;99.90;;;;;;5039020;28;20556;-80
2023/12/30 10:51:24;;;;;;;3.60;3.40;;;16.60;99.90;;;;;;5038251;28;20520;-82
2023/12/30 10:54:02;;;;;;;3.23;3.10;;;16.70;99.90;;;;;;5037205;28;21050;-81
2023/12/30 10:56:32;;;;;;;3.20;3.00;;;16.20;99.90;;;;;;5038016;28;20516;-81
2023/12/30 10:59:06;;;;;;;3.10;3.00;;;15.50;99.90;;;;;;5039363;28;20568;-83
2023/12/30 11:01:34;;;;;;;2.83;2.73;;;15.30;99.90;;;;;;5035728;28;20460;-83
2023/12/30 11:04:11;;;;;;;2.90;2.80;;;15.10;99.90;;;;;;5039034;28;21105;-81
2023/12/30 11:06:46;;;;;;;2.87;2.77;;;15.10;99.90;;;;;;5036934;28;20455;-82
2023/12/30 11:09:14;;;;;;;2.90;2.80;;;14.90;99.90;;;;;;5036575;28;20467;-83
2023/12/30 11:11:49;;;;;;;2.37;2.33;;;15.00;99.90;;;;;;5037494;28;20456;-81
2023/12/30 11:14:20;;;;;;;3.17;2.50;;;14.90;99.90;;;;;;5038145;28;20923;-82
2023/12/30 11:16:51;;;;;;;2.20;2.10;;;15.10;99.90;;;;;;5037007;28;20484;-82
2023/12/30 11:19:27;;;;;;;2.40;2.30;;;15.20;99.90;;;;;;5039089;28;20464;-82
2023/12/30 11:21:57;;;;;;;2.30;2.20;;;15.20;99.90;;;;;;5037057;28;20451;-82
2023/12/30 11:24:27;;;;;;;2.30;2.20;;;15.30;99.90;;;;;;5038829;28;20503;-82
2023/12/30 11:26:56;;;;;;;2.07;2.07;;;15.30;99.90;;;;;;5038900;28;21506;-82
2023/12/30 11:29:27;;;;;;;2.40;2.20;;;15.30;99.90;;;;;;5039041;28;20499;-79
2023/12/30 11:31:58;;;;;;;2.10;2.00;;;15.20;99.90;;;;;;5036136;28;20563;-81
2023/12/30 11:34:27;;;;;;;2.10;2.00;;;14.90;99.90;;;;;;5038520;28;20444;-81
2023/12/30 11:36:59;;;;;;;2.20;2.10;;;14.50;99.90;;;;;;5036659;28;20478;-81
2023/12/30 11:39:30;;;;;;;2.73;2.63;;;14.50;99.90;;;;;;5050392;28;21043;-81
2023/12/30 11:41:58;;;;;;;2.20;2.10;;;14.40;99.90;;;;;;5042138;28;20488;-80
2023/12/30 11:44:30;;;;;;;2.57;2.40;;;14.20;99.90;;;;;;5043271;28;20471;-80
2023/12/30 11:46:59;;;;;;;2.10;2.00;;;14.10;99.90;;;;;;5037021;28;20453;-82
2023/12/30 11:49:28;;;;;;;2.20;2.00;;;14.00;99.90;;;;;;5039300;28;20452;-82
2023/12/30 11:52:02;;;;;;;2.50;2.20;;;13.90;99.90;;;;;;5042429;28;20462;-81
2023/12/30 11:54:33;;;;;;;2.00;2.00;;;13.80;99.90;;;;;;5038156;28;20490;-80
2023/12/30 11:57:01;;;;;;;2.13;2.03;;;13.90;99.90;;;;;;5037414;28;20490;-80
2023/12/30 11:59:31;;;;;;;1.90;1.87;;;13.80;99.90;;;;;;5036887;28;20451;-81
2023/12/30 12:02:08;;;;;;;1.87;1.87;;;13.80;99.90;;;;;;5037294;28;20464;-81
2023/12/30 12:04:36;;;;;;;2.43;2.33;;;13.80;99.90;;;;;;5040842;28;20454;-82
2023/12/30 12:07:05;;;;;;;2.13;2.03;;;13.70;99.90;;;;;;5043517;28;20536;-82
2023/12/30 12:09:34;;;;;;;2.40;2.30;;;13.70;99.90;;;;;;5037864;28;20456;-82
2023/12/30 12:12:02;;;;;;;2.10;2.00;;;13.70;99.90;;;;;;5037171;28;20506;-80
2023/12/30 12:14:34;;;;;;;2.40;2.30;;;13.70;99.90;;;;;;5039537;28;20790;-81
2023/12/30 12:17:04;;;;;;;2.30;2.17;;;13.60;99.90;;;;;;5039815;28;20464;-81
2023/12/30 12:19:33;;;;;;;2.53;2.43;;;13.60;99.90;;;;;;5040823;28;20473;-81
2023/12/30 12:22:01;;;;;;;2.10;2.00;;;13.30;99.90;;;;;;5041426;28;21026;-82
2023/12/30 12:24:32;;;;;;;2.10;2.10;;;13.20;99.90;;;;;;5039413;28;20452;-81
2023/12/30 12:27:00;;;;;;;1.90;1.80;;;13.30;99.90;;;;;;5039898;28;20461;-82
2023/12/30 12:29:29;;;;;;;2.10;2.00;;;13.30;99.90;;;;;;5039461;28;21129;-81
2023/12/30 12:31:59;;;;;;;2.47;2.20;;;13.30;99.90;;;;;;5038572;28;20440;-81
2023/12/30 12:34:27;;;;;;;2.00;1.90;;;13.20;99.90;;;;;;5043540;28;20470;-82
2023/12/30 12:36:56;;;;;;;2.10;2.00;;;13.20;99.90;;;;;;5040543;28;20797;-81
2023/12/30 12:39:25;;;;;;;2.50;2.40;;;13.10;99.90;;;;;;5036652;28;20556;-82
2023/12/30 12:41:53;;;;;;;2.00;1.90;;;13.10;99.90;;;;;;5038356;28;20453;-81
2023/12/30 12:44:21;;;;;;;2.43;2.20;;;13.00;99.90;;;;;;5036345;28;20460;-82
2023/12/30 12:46:50;;;;;;;2.13;2.03;;;13.00;99.90;;;;;;5037652;28;21116;-81
2023/12/30 12:49:22;;;;;;;2.07;2.07;;;13.00;99.90;;;;;;5038672;28;20997;-82
2023/12/30 12:51:51;;;;;;;2.00;1.90;;;13.00;99.90;;;;;;5038250;28;20460;-82
2023/12/30 12:54:19;;;;;;;2.30;2.20;;;12.90;99.90;;;;;;5037868;28;20540;-81
2023/12/30 12:56:47;;;;;;;2.10;2.00;;;12.90;99.90;;;;;;5037354;28;20468;-82
2023/12/30 12:59:16;;;;;;;2.20;2.10;;;12.90;99.90;;;;;;5037672;28;20468;-81
2023/12/30 13:01:45;;;;;;;2.27;2.17;;;12.80;99.90;;;;;;5038894;28;21029;-80
2023/12/30 13:04:15;;;;;;;2.40;2.30;;;12.80;99.90;;;;;;5037384;28;20460;-81